DRZR

Zinder Airport

Zinder, Niger
METAR DRZR 171800Z 00000KT CAVOK 33/12 Q1009
Observed Flight Rules
Oct-17 @ 18:00 UTC (49 minutes ago) Visual Flight Rules
Visibility Clouds
10,000+ meters
  • Clear skies
Temperatures Readings
Current 33°C / 91°F
Dewpoint 12°C / 54°F
Humidity 28%
Altimeter 29.79" Hg
Pressure 1009 hPa
Elevation 453
METAR DRZR 171800Z 00000KT CAVOK 33/12 Q1009
Observed Flight Rules
Oct-17 @ 18:00 UTC
(49 minutes ago)
VFR
Clouds
  • Clear skies
Temperature Dewpoint
33°C / 91°F 12°C / 54°F
Humidity Altimeter Pressure
28% 29.79" Hg 1009 hPa